Time;durP1;ratioP1;P1;durP2;ratioP2;P2;SDS_P1;SDS_P2;PMS_P1;PMS_P2;Temp;Humidity;BMP_temperature;BMP_pressure;BME280_temperature;BME280_humidity;BME280_pressure;Samples;Min_cycle;Max_cycle;Signal;HPM_P1;HPM_P2
2023/04/12 16:19:53;;;;;;;26.05;12.82;;;;;;;;;;1992619;27;20448;-70
2023/04/12 16:20:54;;;;;;;30.13;13.02;;;;;;;;;;1220042;28;10000805;-67
2023/04/12 16:21:56;;;;;;;33.95;13.05;;;;;;;;;;2092423;28;20286;-69
2023/04/12 16:22:58;;;;;;;27.02;12.45;;;;;;;;;;2096411;28;20279;-69
2023/04/12 16:24:08;;;;;;;31.80;13.30;;;;;;;;;;2093756;28;20294;-66
2023/04/12 16:25:12;;;;;;;27.23;12.70;;;;;;;;;;2094075;28;20282;-69
2023/04/12 16:26:20;;;;;;;32.08;13.68;;;;;;;;;;2093689;28;20040;-68
2023/04/12 16:27:28;;;;;;;33.03;13.57;;;;;;;;;;2086476;28;20284;-68
2023/04/12 16:28:32;;;;;;;28.42;12.65;;;;;;;;;;2080827;28;20041;-67
2023/04/12 16:29:34;;;;;;;29.30;13.48;;;;;;;;;;2085089;28;20916;-68
2023/04/12 16:30:39;;;;;;;29.33;13.77;;;;;;;;;;2092909;28;20908;-69
2023/04/12 16:31:41;;;;;;;25.33;12.95;;;;;;;;;;2079106;28;20276;-69
2023/04/12 16:32:45;;;;;;;34.25;13.27;;;;;;;;;;2093060;28;20351;-68
2023/04/12 16:33:50;;;;;;;32.95;14.07;;;;;;;;;;2085592;28;20850;-67
2023/04/12 16:34:55;;;;;;;26.13;13.82;;;;;;;;;;2076984;28;20030;-70
2023/04/12 16:36:00;;;;;;;25.85;14.23;;;;;;;;;;2083601;28;20287;-67
2023/04/12 16:37:05;;;;;;;29.17;14.25;;;;;;;;;;2092978;28;20041;-68
2023/04/12 16:38:07;;;;;;;28.17;13.55;;;;;;;;;;2096097;28;20044;-71
2023/04/12 16:39:12;;;;;;;32.42;13.35;;;;;;;;;;2085512;28;20045;-70
2023/04/12 16:40:16;;;;;;;27.38;12.75;;;;;;;;;;2077777;28;20521;-71
2023/04/12 16:41:20;;;;;;;32.85;13.50;;;;;;;;;;2087083;28;20051;-70
2023/04/12 16:42:27;;;;;;;27.38;13.25;;;;;;;;;;2078432;28;20037;-68
2023/04/12 16:43:32;;;;;;;29.13;13.57;;;;;;;;;;2091457;28;20056;-69
2023/04/12 16:44:40;;;;;;;30.27;13.57;;;;;;;;;;2090391;28;20048;-69
2023/04/12 16:45:44;;;;;;;32.97;12.80;;;;;;;;;;2093292;28;20495;-70
2023/04/12 16:46:49;;;;;;;26.77;13.48;;;;;;;;;;2092883;28;20053;-71
2023/04/12 16:47:54;;;;;;;23.33;12.32;;;;;;;;;;2084281;28;20500;-69
2023/04/12 16:49:03;;;;;;;21.33;11.30;;;;;;;;;;2083665;28;20052;-69
2023/04/12 16:50:09;;;;;;;27.20;12.07;;;;;;;;;;2085141;28;20029;-69
2023/04/12 16:51:11;;;;;;;36.00;12.70;;;;;;;;;;2083218;28;20029;-69
2023/04/12 16:52:16;;;;;;;21.77;12.05;;;;;;;;;;2082962;28;20114;-70
2023/04/12 16:53:18;;;;;;;22.85;11.48;;;;;;;;;;2097978;28;20028;-68
2023/04/12 16:54:20;;;;;;;27.38;11.40;;;;;;;;;;2097631;28;20028;-69
2023/04/12 16:55:24;;;;;;;25.50;11.50;;;;;;;;;;2100116;28;20036;-68
2023/04/12 16:56:28;;;;;;;22.05;11.63;;;;;;;;;;2084722;28;20045;-69
2023/04/12 16:57:32;;;;;;;22.65;11.98;;;;;;;;;;2098434;28;20499;-69
2023/04/12 16:58:34;;;;;;;20.85;11.43;;;;;;;;;;2109718;28;20291;-69
2023/04/12 16:59:38;;;;;;;22.85;12.63;;;;;;;;;;2101544;28;20036;-68
2023/04/12 17:00:45;;;;;;;21.98;11.63;;;;;;;;;;2101728;28;20040;-68
2023/04/12 17:01:54;;;;;;;24.67;11.23;;;;;;;;;;2101535;28;20047;-67
2023/04/12 17:02:57;;;;;;;21.27;11.30;;;;;;;;;;2093481;28;20056;-69
2023/04/12 17:04:03;;;;;;;22.10;11.25;;;;;;;;;;2092442;28;20052;-69
2023/04/12 17:05:17;;;;;;;20.67;11.07;;;;;;;;;;2092598;28;20076;-69
2023/04/12 17:06:20;;;;;;;22.48;12.10;;;;;;;;;;2101105;28;20033;-68
2023/04/12 17:07:23;;;;;;;23.55;11.10;;;;;;;;;;2099173;28;20074;-68
2023/04/12 17:08:28;;;;;;;20.55;10.43;;;;;;;;;;2093013;28;20036;-68
2023/04/12 17:09:34;;;;;;;24.63;11.55;;;;;;;;;;2100010;28;20048;-69
2023/04/12 17:10:37;;;;;;;19.20;10.80;;;;;;;;;;2100397;28;20052;-68
2023/04/12 17:11:39;;;;;;;21.85;10.55;;;;;;;;;;2085623;28;20040;-67
2023/04/12 17:12:43;;;;;;;21.27;10.82;;;;;;;;;;2082250;28;20041;-70
2023/04/12 17:13:45;;;;;;;20.50;10.50;;;;;;;;;;2090937;28;20526;-69
2023/04/12 17:14:52;;;;;;;17.63;10.23;;;;;;;;;;2107442;28;20055;-68
2023/04/12 17:15:56;;;;;;;22.10;10.48;;;;;;;;;;2101858;28;20372;-70
2023/04/12 17:16:59;;;;;;;19.40;9.93;;;;;;;;;;2098692;28;20799;-69
2023/04/12 17:18:04;;;;;;;18.92;11.13;;;;;;;;;;2098260;28;20047;-69
2023/04/12 17:19:08;;;;;;;17.60;9.90;;;;;;;;;;2101106;28;20032;-69
2023/04/12 17:20:18;;;;;;;19.95;9.95;;;;;;;;;;2101870;28;20045;-69
2023/04/12 17:21:21;;;;;;;20.15;10.15;;;;;;;;;;2095810;28;20029;-68
2023/04/12 17:22:26;;;;;;;20.45;10.07;;;;;;;;;;2107285;28;20040;-69
2023/04/12 17:23:35;;;;;;;20.27;10.27;;;;;;;;;;2098074;28;20737;-67
2023/04/12 17:24:37;;;;;;;17.67;9.30;;;;;;;;;;2100179;28;20274;-67
2023/04/12 17:25:39;;;;;;;19.35;9.27;;;;;;;;;;2092496;28;20037;-69
2023/04/12 17:26:42;;;;;;;20.55;9.50;;;;;;;;;;2095070;28;20036;-68
2023/04/12 17:27:47;;;;;;;15.65;9.10;;;;;;;;;;2097498;28;20150;-69
2023/04/12 17:28:50;;;;;;;16.35;8.75;;;;;;;;;;2097389;28;20447;-69
2023/04/12 17:29:55;;;;;;;15.43;8.27;;;;;;;;;;2093994;28;20037;-70
2023/04/12 17:30:56;;;;;;;15.52;8.32;;;;;;;;;;2089915;28;20275;-70
2023/04/12 17:31:59;;;;;;;14.82;8.18;;;;;;;;;;2079767;28;20727;-69
2023/04/12 17:33:06;;;;;;;14.13;7.97;;;;;;;;;;2088386;28;20056;-70
2023/04/12 17:34:08;;;;;;;11.82;7.15;;;;;;;;;;2088687;28;20044;-69
2023/04/12 17:35:10;;;;;;;14.20;8.15;;;;;;;;;;2080572;28;20291;-69
2023/04/12 17:36:14;;;;;;;12.32;7.15;;;;;;;;;;2076764;28;20052;-70
2023/04/12 17:37:16;;;;;;;14.88;8.15;;;;;;;;;;2095471;28;20049;-70
2023/04/12 17:38:17;;;;;;;14.20;7.10;;;;;;;;;;2096435;28;20051;-69
2023/04/12 17:39:19;;;;;;;12.73;7.03;;;;;;;;;;2088337;28;20111;-70
2023/04/12 17:40:20;;;;;;;11.50;6.88;;;;;;;;;;2096825;28;20024;-71
2023/04/12 17:41:22;;;;;;;13.23;6.75;;;;;;;;;;2096996;28;20274;-72
2023/04/12 17:42:27;;;;;;;12.05;6.30;;;;;;;;;;2086096;28;20031;-69
2023/04/12 17:43:31;;;;;;;11.93;6.68;;;;;;;;;;2087825;28;20263;-70
2023/04/12 17:44:34;;;;;;;12.82;6.93;;;;;;;;;;2102034;28;20270;-68
2023/04/12 17:45:35;;;;;;;12.23;6.95;;;;;;;;;;2095185;28;20042;-70
2023/04/12 17:46:38;;;;;;;14.88;7.40;;;;;;;;;;2076870;28;20277;-68
2023/04/12 17:47:39;;;;;;;13.02;7.25;;;;;;;;;;2084845;28;20279;-64
2023/04/12 17:48:43;;;;;;;13.27;7.28;;;;;;;;;;2086917;28;20528;-64
2023/04/12 17:49:47;;;;;;;15.93;7.90;;;;;;;;;;2096075;28;20290;-64
2023/04/12 17:50:53;;;;;;;13.68;7.43;;;;;;;;;;2095623;28;20333;-68
2023/04/12 17:52:00;;;;;;;17.75;7.75;;;;;;;;;;2089384;28;20282;-65
2023/04/12 17:53:04;;;;;;;19.83;9.18;;;;;;;;;;2097486;28;20039;-64
2023/04/12 17:54:06;;;;;;;17.67;8.55;;;;;;;;;;2088495;28;20275;-65
2023/04/12 17:55:11;;;;;;;21.33;9.27;;;;;;;;;;2079141;28;20445;-64
2023/04/12 17:56:16;;;;;;;20.50;8.45;;;;;;;;;;2095337;28;20043;-67
2023/04/12 17:57:19;;;;;;;16.05;8.25;;;;;;;;;;2102325;28;20266;-64
2023/04/12 17:58:28;;;;;;;17.50;8.20;;;;;;;;;;2096278;28;20041;-67
2023/04/12 17:59:31;;;;;;;21.63;8.80;;;;;;;;;;2095445;28;20405;-65
2023/04/12 18:00:33;;;;;;;21.20;8.60;;;;;;;;;;2089070;28;20279;-64
2023/04/12 18:01:40;;;;;;;17.40;8.95;;;;;;;;;;2089172;28;20049;-64
2023/04/12 18:02:45;;;;;;;17.65;7.90;;;;;;;;;;2089868;28;20044;-64
2023/04/12 18:03:47;;;;;;;20.80;9.20;;;;;;;;;;2096020;28;20267;-64
2023/04/12 18:04:53;;;;;;;17.55;9.23;;;;;;;;;;2096629;28;20270;-65
2023/04/12 18:05:57;;;;;;;18.13;9.25;;;;;;;;;;2095270;28;20324;-64
2023/04/12 18:07:03;;;;;;;17.65;9.10;;;;;;;;;;2091209;28;20283;-64
2023/04/12 18:08:08;;;;;;;22.60;10.65;;;;;;;;;;2104210;28;20270;-64
2023/04/12 18:09:11;;;;;;;18.40;9.80;;;;;;;;;;2110204;28;20266;-64
2023/04/12 18:10:17;;;;;;;19.13;9.60;;;;;;;;;;2079578;28;118809;-63
2023/04/12 18:11:19;;;;;;;20.50;9.88;;;;;;;;;;2087049;28;20842;-64
2023/04/12 18:12:23;;;;;;;22.60;9.75;;;;;;;;;;2076662;28;20287;-63
2023/04/12 18:13:28;;;;;;;18.65;9.73;;;;;;;;;;2086358;28;20287;-65
2023/04/12 18:14:30;;;;;;;19.48;8.73;;;;;;;;;;2087525;28;20290;-64
2023/04/12 18:15:34;;;;;;;18.13;9.20;;;;;;;;;;2087477;28;20279;-63
2023/04/12 18:16:36;;;;;;;19.77;9.50;;;;;;;;;;2079021;28;20283;-64
2023/04/12 18:17:47;;;;;;;19.73;8.74;;;;;;;;;;1936632;28;10001392;-64
2023/04/12 18:18:50;;;;;;;17.85;9.07;;;;;;;;;;1553041;28;10001131;-63
2023/04/12 18:19:52;;;;;;;19.63;9.05;;;;;;;;;;2076815;28;20049;-63
2023/04/12 18:20:56;;;;;;;18.63;9.25;;;;;;;;;;2078919;28;20272;-65
2023/04/12 18:21:59;;;;;;;17.98;9.65;;;;;;;;;;2080840;28;20850;-64
2023/04/12 18:23:03;;;;;;;19.25;9.23;;;;;;;;;;2062649;28;20300;-64
2023/04/12 18:24:13;;;;;;;17.20;9.32;;;;;;;;;;2072221;28;20324;-65
2023/04/12 18:25:15;;;;;;;17.00;9.50;;;;;;;;;;2026975;28;21187;-64
2023/04/12 18:26:18;;;;;;;17.92;9.45;;;;;;;;;;2076203;28;222279;-64
2023/04/12 18:27:20;;;;;;;18.15;9.68;;;;;;;;;;2076770;28;20284;-65
2023/04/12 18:31:16;;;;;;;15.93;8.88;;;;;;;;;;2101909;27;20381;-63
2023/04/12 18:33:03;;;;;;;15.00;8.73;;;;;;;;;;2080453;27;20574;-64
2023/04/12 18:34:10;;;;;;;22.67;9.73;;;;;;;;;;2109284;28;20289;-64
2023/04/12 18:35:13;;;;;;;19.08;10.00;;;;;;;;;;2093641;28;20643;-66
2023/04/12 18:36:18;;;;;;;21.50;10.30;;;;;;;;;;2085286;28;20295;-64
2023/04/12 18:37:22;;;;;;;16.95;9.38;;;;;;;;;;2093518;28;20282;-63
2023/04/12 18:38:31;;;;;;;19.60;10.30;;;;;;;;;;2093985;28;20063;-65
2023/04/12 18:39:34;;;;;;;19.50;10.48;;;;;;;;;;2085632;28;20045;-64
2023/04/12 18:40:37;;;;;;;20.10;10.32;;;;;;;;;;2085066;28;20578;-65
2023/04/12 18:41:41;;;;;;;25.92;11.00;;;;;;;;;;2092999;28;20287;-66
2023/04/12 18:42:46;;;;;;;23.45;10.73;;;;;;;;;;2075303;28;20545;-64
2023/04/12 18:43:53;;;;;;;20.58;10.75;;;;;;;;;;2085444;28;20041;-64
2023/04/12 18:44:55;;;;;;;19.15;11.13;;;;;;;;;;2086797;28;20288;-64
2023/04/12 18:45:57;;;;;;;27.00;11.07;;;;;;;;;;2085237;28;20272;-64
2023/04/12 18:47:00;;;;;;;28.88;11.88;;;;;;;;;;2085994;28;20283;-64
2023/04/12 18:48:02;;;;;;;23.75;11.55;;;;;;;;;;2084653;28;20280;-66
2023/04/12 18:49:07;;;;;;;23.55;11.00;;;;;;;;;;2085909;28;20072;-65
2023/04/12 18:50:10;;;;;;;21.13;11.07;;;;;;;;;;2051240;28;20378;-65
2023/04/12 18:51:14;;;;;;;20.77;11.98;;;;;;;;;;2086383;28;21163;-64
2023/04/12 18:52:16;;;;;;;25.63;12.30;;;;;;;;;;2086198;28;20920;-65
2023/04/12 18:53:18;;;;;;;21.15;11.45;;;;;;;;;;2093672;28;20290;-66
2023/04/12 18:54:20;;;;;;;21.23;12.32;;;;;;;;;;2096672;28;20282;-65
2023/04/12 18:55:22;;;;;;;22.38;12.82;;;;;;;;;;2085737;28;20294;-65
2023/04/12 18:56:26;;;;;;;23.02;13.45;;;;;;;;;;2094182;28;20270;-64
2023/04/12 18:57:28;;;;;;;22.63;12.48;;;;;;;;;;2102472;28;20266;-65
2023/04/12 18:58:31;;;;;;;22.50;12.20;;;;;;;;;;2101730;28;20282;-64
2023/04/12 18:59:35;;;;;;;23.25;12.20;;;;;;;;;;2102459;28;20988;-64
2023/04/12 19:00:37;;;;;;;22.38;12.40;;;;;;;;;;2102041;28;20278;-64
2023/04/12 19:01:39;;;;;;;27.52;13.93;;;;;;;;;;2102655;28;20374;-65
2023/04/12 19:02:41;;;;;;;26.17;12.68;;;;;;;;;;2110134;28;20277;-64
2023/04/12 19:03:46;;;;;;;28.17;12.40;;;;;;;;;;2100788;28;20795;-64
2023/04/12 19:04:47;;;;;;;25.80;12.00;;;;;;;;;;2107825;28;20292;-64
2023/04/12 19:05:54;;;;;;;24.40;11.93;;;;;;;;;;2117665;28;20347;-65
2023/04/12 19:06:56;;;;;;;27.35;12.68;;;;;;;;;;2110693;28;20383;-65
2023/04/12 19:07:59;;;;;;;29.67;12.50;;;;;;;;;;2105648;28;20278;-64
2023/04/12 19:09:03;;;;;;;27.98;11.75;;;;;;;;;;2102956;28;20278;-65
2023/04/12 19:10:04;;;;;;;26.40;11.80;;;;;;;;;;2085939;28;20295;-64
2023/04/12 19:11:06;;;;;;;27.23;12.13;;;;;;;;;;2094156;28;20286;-64
2023/04/12 19:12:07;;;;;;;25.33;11.85;;;;;;;;;;2102502;28;20032;-64
2023/04/12 19:13:12;;;;;;;35.92;12.13;;;;;;;;;;2083194;28;20280;-64
2023/04/12 19:14:16;;;;;;;31.35;13.13;;;;;;;;;;2110906;28;20282;-64
2023/04/12 19:15:18;;;;;;;34.60;13.02;;;;;;;;;;2102624;28;20309;-65
2023/04/12 19:16:19;;;;;;;38.13;14.27;;;;;;;;;;2086120;28;20287;-65
2023/04/12 19:17:26;;;;;;;38.35;12.40;;;;;;;;;;2094360;28;20290;-65
2023/04/12 19:18:30;;;;;;;41.33;13.70;;;;;;;;;;2110792;28;20351;-64
2023/04/12 19:19:40;;;;;;;36.35;13.93;;;;;;;;;;2110124;28;20292;-64
2023/04/12 19:20:42;;;;;;;36.65;13.77;;;;;;;;;;2111204;28;20824;-64
2023/04/12 19:21:46;;;;;;;43.17;13.88;;;;;;;;;;2094740;28;20776;-64
2023/04/12 19:22:47;;;;;;;40.90;13.30;;;;;;;;;;2094534;28;20290;-65
2023/04/12 19:23:49;;;;;;;37.33;13.05;;;;;;;;;;2102627;28;20397;-64
2023/04/12 19:24:56;;;;;;;34.97;11.65;;;;;;;;;;2110440;28;20320;-64
2023/04/12 19:26:04;;;;;;;29.08;12.48;;;;;;;;;;2111050;28;20282;-64
2023/04/12 19:27:06;;;;;;;27.33;11.48;;;;;;;;;;2103363;28;20792;-64
2023/04/12 19:28:12;;;;;;;31.85;11.80;;;;;;;;;;2110793;28;20281;-65
2023/04/12 19:29:17;;;;;;;40.45;12.80;;;;;;;;;;2110968;28;20943;-64
2023/04/12 19:30:19;;;;;;;32.53;12.13;;;;;;;;;;2111502;28;20300;-64
2023/04/12 19:31:26;;;;;;;33.92;11.80;;;;;;;;;;2119498;28;20269;-64
2023/04/12 19:32:27;;;;;;;30.85;11.75;;;;;;;;;;2093692;28;20299;-64
2023/04/12 19:33:29;;;;;;;26.15;11.98;;;;;;;;;;2094226;28;20299;-64
2023/04/12 19:34:34;;;;;;;29.17;12.98;;;;;;;;;;2101908;28;20278;-64
2023/04/12 19:35:36;;;;;;;28.58;13.50;;;;;;;;;;2101272;28;20325;-65
2023/04/12 19:36:37;;;;;;;32.30;12.90;;;;;;;;;;2109951;28;20274;-65
2023/04/12 19:37:39;;;;;;;30.63;12.65;;;;;;;;;;2101442;28;20299;-64
2023/04/12 19:38:42;;;;;;;34.22;13.13;;;;;;;;;;2094080;28;20290;-65
2023/04/12 19:39:47;;;;;;;29.77;12.43;;;;;;;;;;2111286;28;20783;-64
2023/04/12 19:40:53;;;;;;;30.20;12.32;;;;;;;;;;2110330;28;20281;-64
2023/04/12 19:41:56;;;;;;;31.65;12.88;;;;;;;;;;2110640;28;20280;-64
2023/04/12 19:43:01;;;;;;;32.22;12.65;;;;;;;;;;2099588;28;20910;-64
2023/04/12 19:44:02;;;;;;;35.80;13.20;;;;;;;;;;2102888;28;20290;-64
2023/04/12 19:45:06;;;;;;;39.25;14.77;;;;;;;;;;2088662;28;20287;-64
2023/04/12 19:46:13;;;;;;;44.25;17.00;;;;;;;;;;2097550;28;20288;-64
2023/04/12 19:47:17;;;;;;;46.40;15.25;;;;;;;;;;2096768;28;20325;-64
2023/04/12 19:48:19;;;;;;;39.10;16.17;;;;;;;;;;2080782;28;20037;-64
2023/04/12 19:49:22;;;;;;;44.30;14.40;;;;;;;;;;2088660;28;20287;-64
2023/04/12 19:50:24;;;;;;;39.00;14.23;;;;;;;;;;2096831;28;20278;-64
2023/04/12 19:51:30;;;;;;;43.35;14.00;;;;;;;;;;2105032;28;20289;-64
2023/04/12 19:52:34;;;;;;;44.15;14.02;;;;;;;;;;2097375;28;20282;-64
2023/04/12 19:53:35;;;;;;;42.75;13.38;;;;;;;;;;2105118;28;20262;-64
2023/04/12 19:54:38;;;;;;;35.53;13.05;;;;;;;;;;2096507;28;20313;-64
2023/04/12 19:55:41;;;;;;;26.30;12.48;;;;;;;;;;2096530;28;20267;-64
2023/04/12 19:56:51;;;;;;;25.17;11.43;;;;;;;;;;2095648;28;20630;-65
2023/04/12 19:57:55;;;;;;;24.45;10.90;;;;;;;;;;2094210;28;20266;-64
2023/04/12 19:59:01;;;;;;;22.95;10.82;;;;;;;;;;2096328;28;20267;-64
2023/04/12 20:00:11;;;;;;;24.33;10.73;;;;;;;;;;2104118;28;20278;-64
2023/04/12 20:01:16;;;;;;;23.17;11.18;;;;;;;;;;2103276;28;20285;-65
2023/04/12 20:02:19;;;;;;;28.35;11.13;;;;;;;;;;2096853;28;20757;-65
2023/04/12 20:03:20;;;;;;;23.45;10.93;;;;;;;;;;2100613;28;20274;-64
2023/04/12 20:04:26;;;;;;;23.98;10.57;;;;;;;;;;2103674;28;20345;-65
2023/04/12 20:05:28;;;;;;;23.33;11.32;;;;;;;;;;2096646;28;20283;-65
2023/04/12 20:06:32;;;;;;;27.92;11.32;;;;;;;;;;2113223;28;20266;-65
2023/04/12 20:07:33;;;;;;;23.92;10.95;;;;;;;;;;2112050;28;20280;-65
2023/04/12 20:08:40;;;;;;;25.42;10.90;;;;;;;;;;2096021;28;20275;-65
2023/04/12 20:09:44;;;;;;;26.20;10.32;;;;;;;;;;2087736;28;20302;-65
2023/04/12 20:10:49;;;;;;;27.98;10.52;;;;;;;;;;2094451;28;21011;-64
2023/04/12 20:11:50;;;;;;;23.13;10.05;;;;;;;;;;2092456;28;20274;-65
2023/04/12 20:12:54;;;;;;;30.20;10.68;;;;;;;;;;2095029;28;20279;-65
2023/04/12 20:13:59;;;;;;;23.80;10.82;;;;;;;;;;2112149;28;20276;-65
2023/04/12 20:15:03;;;;;;;24.95;10.68;;;;;;;;;;2103550;28;21143;-65
2023/04/12 20:16:10;;;;;;;34.53;11.15;;;;;;;;;;2087902;28;20271;-65
2023/04/12 20:17:17;;;;;;;27.35;11.35;;;;;;;;;;2096237;28;20267;-66
2023/04/12 20:18:19;;;;;;;27.98;11.05;;;;;;;;;;2096213;28;20290;-65
2023/04/12 20:19:25;;;;;;;24.27;11.20;;;;;;;;;;2088449;28;20266;-66
2023/04/12 20:20:27;;;;;;;31.23;11.27;;;;;;;;;;2096166;28;21134;-65
2023/04/12 20:21:30;;;;;;;24.88;11.00;;;;;;;;;;2095876;28;20267;-66
2023/04/12 20:22:34;;;;;;;27.65;11.07;;;;;;;;;;2095427;28;20271;-65
2023/04/12 20:23:42;;;;;;;26.77;10.88;;;;;;;;;;2096932;28;20275;-66
2023/04/12 20:24:46;;;;;;;30.75;11.32;;;;;;;;;;2096211;28;20285;-66
2023/04/12 20:25:51;;;;;;;25.00;10.68;;;;;;;;;;2095205;28;20267;-64
2023/04/12 20:26:53;;;;;;;29.52;10.30;;;;;;;;;;2096877;28;20259;-66
2023/04/12 20:27:57;;;;;;;35.60;10.05;;;;;;;;;;2096094;28;20286;-65
2023/04/12 20:29:03;;;;;;;27.27;9.98;;;;;;;;;;2087872;28;20338;-65
2023/04/12 20:30:10;;;;;;;31.25;9.38;;;;;;;;;;2088979;28;20666;-65
2023/04/12 20:31:14;;;;;;;45.97;9.52;;;;;;;;;;2095775;28;20275;-65
2023/04/12 20:32:18;;;;;;;37.90;10.25;;;;;;;;;;2087247;28;20279;-65
2023/04/12 20:33:20;;;;;;;39.70;10.05;;;;;;;;;;2088147;28;20299;-65
2023/04/12 20:34:24;;;;;;;52.35;10.48;;;;;;;;;;2095795;28;20278;-66
2023/04/12 20:35:26;;;;;;;44.03;9.43;;;;;;;;;;2096058;28;20270;-65
2023/04/12 20:36:30;;;;;;;31.15;10.02;;;;;;;;;;2087203;28;20766;-65
2023/04/12 20:37:32;;;;;;;32.17;10.05;;;;;;;;;;2088261;28;20662;-64
2023/04/12 20:38:34;;;;;;;36.85;10.82;;;;;;;;;;2079545;28;20301;-66
2023/04/12 20:39:39;;;;;;;31.42;9.75;;;;;;;;;;2080494;28;20605;-65
2023/04/12 20:40:40;;;;;;;47.60;9.85;;;;;;;;;;2079636;28;20384;-65
2023/04/12 20:41:48;;;;;;;41.05;11.85;;;;;;;;;;2079868;28;20276;-65
2023/04/12 20:42:52;;;;;;;52.10;12.27;;;;;;;;;;2079854;28;20272;-65
2023/04/12 20:43:54;;;;;;;34.03;11.02;;;;;;;;;;2079079;28;20322;-65
2023/04/12 20:44:56;;;;;;;34.90;10.93;;;;;;;;;;2094250;28;20283;-66
2023/04/12 20:46:08;;;;;;;31.73;9.88;;;;;;;;;;2094542;28;20274;-65
2023/04/12 20:47:11;;;;;;;26.10;9.35;;;;;;;;;;2095418;28;20267;-65
2023/04/12 20:48:12;;;;;;;29.30;9.80;;;;;;;;;;2080087;28;20284;-65
2023/04/12 20:49:15;;;;;;;29.80;9.00;;;;;;;;;;2080171;28;20033;-65
2023/04/12 20:50:21;;;;;;;24.67;8.05;;;;;;;;;;2096442;28;20259;-65
2023/04/12 20:51:26;;;;;;;24.42;8.23;;;;;;;;;;2096794;28;20301;-64
2023/04/12 20:52:29;;;;;;;24.15;8.45;;;;;;;;;;2097066;28;20263;-65
2023/04/12 20:53:35;;;;;;;26.25;8.60;;;;;;;;;;2096191;28;20294;-64
2023/04/12 20:54:37;;;;;;;19.38;8.15;;;;;;;;;;2088402;28;20797;-66
2023/04/12 20:55:41;;;;;;;17.83;8.02;;;;;;;;;;2091247;28;20282;-66
2023/04/12 20:56:44;;;;;;;13.25;6.85;;;;;;;;;;2088284;28;20267;-65
2023/04/12 20:57:45;;;;;;;15.45;7.43;;;;;;;;;;2095038;28;20279;-66
2023/04/12 20:58:50;;;;;;;14.88;6.93;;;;;;;;;;2096131;28;20325;-66
2023/04/12 20:59:58;;;;;;;20.10;7.40;;;;;;;;;;2088093;28;20272;-65
2023/04/12 21:01:03;;;;;;;16.67;7.53;;;;;;;;;;2079724;28;20767;-65
2023/04/12 21:02:08;;;;;;;17.23;6.70;;;;;;;;;;2088948;28;20287;-66
2023/04/12 21:03:11;;;;;;;15.48;7.70;;;;;;;;;;2088190;28;20654;-65
2023/04/12 21:04:15;;;;;;;17.13;7.60;;;;;;;;;;2080364;28;20291;-66
2023/04/12 21:05:17;;;;;;;16.83;7.40;;;;;;;;;;2088234;28;20370;-66
2023/04/12 21:06:20;;;;;;;14.82;7.03;;;;;;;;;;2079614;28;20044;-66
2023/04/12 21:07:26;;;;;;;16.23;7.28;;;;;;;;;;2071896;28;20773;-66
2023/04/12 21:08:30;;;;;;;13.18;6.75;;;;;;;;;;2088740;28;20284;-66
2023/04/12 21:09:31;;;;;;;13.93;7.20;;;;;;;;;;2088237;28;20275;-66
2023/04/12 21:10:33;;;;;;;15.90;6.95;;;;;;;;;;2088019;28;20310;-66
2023/04/12 21:11:36;;;;;;;16.52;7.20;;;;;;;;;;2088289;28;20298;-63
2023/04/12 21:12:41;;;;;;;18.77;6.88;;;;;;;;;;2079619;28;21010;-63
2023/04/12 21:13:51;;;;;;;;;;;;;;;;;;2081606;28;20045;-63
2023/04/12 21:14:59;;;;;;;15.48;7.05;;;;;;;;;;2088773;28;19951;-63
2023/04/12 21:16:04;;;;;;;14.75;7.00;;;;;;;;;;2095234;28;20864;-64
2023/04/12 21:17:06;;;;;;;14.15;6.88;;;;;;;;;;2078451;28;20936;-64
2023/04/12 21:18:10;;;;;;;13.93;7.18;;;;;;;;;;2074025;28;20276;-62
2023/04/12 21:19:14;;;;;;;12.05;6.13;;;;;;;;;;2072301;28;20295;-64
2023/04/12 21:20:15;;;;;;;13.10;6.57;;;;;;;;;;2088688;28;20359;-65
2023/04/12 21:21:20;;;;;;;13.02;6.03;;;;;;;;;;2103562;28;20281;-65
2023/04/12 21:22:21;;;;;;;12.70;6.22;;;;;;;;;;2096172;28;20275;-64
2023/04/12 21:23:23;;;;;;;13.38;6.40;;;;;;;;;;2088130;28;20294;-65
2023/04/12 21:24:36;;;;;;;16.00;6.68;;;;;;;;;;2088013;28;20279;-64
2023/04/12 21:25:38;;;;;;;15.05;6.90;;;;;;;;;;2089893;28;20272;-64
2023/04/12 21:26:40;;;;;;;12.63;6.22;;;;;;;;;;2087569;28;20260;-65
2023/04/12 21:27:46;;;;;;;13.35;6.63;;;;;;;;;;2087537;28;20283;-65
2023/04/12 21:28:48;;;;;;;18.77;5.90;;;;;;;;;;2087985;28;20627;-64
2023/04/12 21:29:49;;;;;;;17.15;6.60;;;;;;;;;;2088077;28;20270;-64
2023/04/12 21:30:57;;;;;;;10.65;6.00;;;;;;;;;;2088169;28;20268;-64
2023/04/12 21:31:59;;;;;;;12.75;5.80;;;;;;;;;;2095451;28;20271;-65
2023/04/12 21:33:06;;;;;;;13.00;6.75;;;;;;;;;;2095728;28;20804;-65
2023/04/12 21:34:09;;;;;;;14.10;6.35;;;;;;;;;;2095916;28;20274;-64
2023/04/12 21:35:10;;;;;;;12.00;6.18;;;;;;;;;;2086924;28;20279;-65
2023/04/12 21:36:14;;;;;;;12.32;6.57;;;;;;;;;;2078589;28;20800;-65
2023/04/12 21:37:20;;;;;;;15.73;6.55;;;;;;;;;;2080090;28;20044;-65
2023/04/12 21:38:27;;;;;;;11.98;6.15;;;;;;;;;;2095793;28;20282;-65
2023/04/12 21:39:29;;;;;;;14.07;6.35;;;;;;;;;;2088120;28;20290;-65
2023/04/12 21:40:33;;;;;;;13.75;6.65;;;;;;;;;;2096474;28;20758;-65
2023/04/12 21:41:36;;;;;;;13.15;6.80;;;;;;;;;;2096111;28;20756;-64
2023/04/12 21:42:38;;;;;;;13.35;6.53;;;;;;;;;;2095732;28;20274;-65
2023/04/12 21:43:46;;;;;;;13.60;7.15;;;;;;;;;;2095822;28;20282;-65
2023/04/12 21:44:53;;;;;;;13.52;7.13;;;;;;;;;;2095876;28;20286;-65
2023/04/12 21:45:57;;;;;;;14.45;7.55;;;;;;;;;;2096462;28;20290;-65
2023/04/12 21:47:01;;;;;;;15.93;8.10;;;;;;;;;;2087660;28;20267;-65
2023/04/12 21:48:06;;;;;;;19.15;8.60;;;;;;;;;;2080469;28;20272;-65
2023/04/12 21:49:08;;;;;;;16.92;8.68;;;;;;;;;;2087689;28;20287;-65
2023/04/12 21:50:10;;;;;;;24.30;11.10;;;;;;;;;;2087797;28;20275;-65
2023/04/12 21:51:12;;;;;;;22.13;10.77;;;;;;;;;;2095201;28;20289;-65
2023/04/12 21:52:17;;;;;;;20.23;10.80;;;;;;;;;;2096522;28;20274;-65
2023/04/12 21:53:26;;;;;;;23.85;11.80;;;;;;;;;;2095630;28;20286;-65
2023/04/12 21:54:33;;;;;;;24.42;12.00;;;;;;;;;;2089015;28;20893;-66
2023/04/12 21:55:35;;;;;;;23.83;12.25;;;;;;;;;;2088425;28;20279;-64
2023/04/12 21:56:40;;;;;;;26.02;12.88;;;;;;;;;;2087160;28;20679;-65
2023/04/12 21:57:45;;;;;;;29.90;14.48;;;;;;;;;;2080472;28;20282;-65
2023/04/12 21:58:48;;;;;;;33.03;14.77;;;;;;;;;;2079722;28;20288;-65
2023/04/12 21:59:50;;;;;;;31.05;13.77;;;;;;;;;;2088112;28;20278;-65
2023/04/12 22:00:52;;;;;;;29.55;14.10;;;;;;;;;;2087663;28;20290;-65
2023/04/12 22:01:53;;;;;;;26.83;12.90;;;;;;;;;;2079482;28;20279;-65
2023/04/12 22:02:55;;;;;;;27.25;13.85;;;;;;;;;;2087881;28;20267;-65
2023/04/12 22:04:01;;;;;;;29.58;14.15;;;;;;;;;;2079437;28;20886;-65
2023/04/12 22:05:08;;;;;;;26.88;13.52;;;;;;;;;;2081329;28;20809;-65
2023/04/12 22:06:14;;;;;;;32.88;14.05;;;;;;;;;;2086795;28;20663;-65
2023/04/12 22:07:19;;;;;;;31.15;14.00;;;;;;;;;;2093083;28;20845;-65
2023/04/12 22:08:28;;;;;;;31.98;13.85;;;;;;;;;;2093987;28;20282;-65
2023/04/12 22:09:32;;;;;;;28.52;13.82;;;;;;;;;;2087605;28;20294;-64
2023/04/12 22:10:33;;;;;;;32.75;13.85;;;;;;;;;;2088097;28;20777;-63
2023/04/12 22:11:40;;;;;;;29.17;12.90;;;;;;;;;;2095867;28;20271;-62
2023/04/12 22:12:48;;;;;;;28.98;13.32;;;;;;;;;;2087323;28;20275;-63
2023/04/12 22:13:55;;;;;;;30.17;13.85;;;;;;;;;;2089062;28;20302;-65
2023/04/12 22:15:00;;;;;;;32.50;14.77;;;;;;;;;;2095905;28;20267;-63
2023/04/12 22:16:04;;;;;;;38.20;16.38;;;;;;;;;;2095812;28;20290;-63
2023/04/12 22:17:06;;;;;;;33.08;15.25;;;;;;;;;;2088139;28;20275;-63
2023/04/12 22:18:09;;;;;;;30.02;13.93;;;;;;;;;;2080143;28;20635;-63
2023/04/12 22:19:15;;;;;;;37.13;14.73;;;;;;;;;;2079591;28;20283;-63
2023/04/12 22:20:17;;;;;;;30.25;13.65;;;;;;;;;;2081354;28;20280;-63
2023/04/12 22:21:22;;;;;;;25.70;12.63;;;;;;;;;;2072321;28;20269;-63
2023/04/12 22:22:27;;;;;;;29.95;13.40;;;;;;;;;;2081670;28;20283;-64
2023/04/12 22:23:31;;;;;;;26.40;13.85;;;;;;;;;;2089167;28;20271;-65
2023/04/12 22:24:35;;;;;;;27.00;13.20;;;;;;;;;;2070481;28;20275;-64
2023/04/12 22:25:37;;;;;;;29.13;13.15;;;;;;;;;;2080133;28;20283;-64
2023/04/12 22:26:38;;;;;;;25.70;12.48;;;;;;;;;;2087564;28;20281;-64
2023/04/12 22:27:45;;;;;;;24.73;12.63;;;;;;;;;;2080551;28;20267;-64
2023/04/12 22:28:49;;;;;;;32.33;13.60;;;;;;;;;;2089457;28;20286;-64
2023/04/12 22:29:50;;;;;;;28.60;13.25;;;;;;;;;;2089085;28;20278;-64
2023/04/12 22:30:52;;;;;;;29.63;13.20;;;;;;;;;;2088951;28;20274;-64
2023/04/12 22:31:58;;;;;;;24.75;12.60;;;;;;;;;;2080542;28;20284;-64
2023/04/12 22:33:01;;;;;;;26.25;12.05;;;;;;;;;;2082063;28;20288;-64
2023/04/12 22:34:06;;;;;;;24.92;12.48;;;;;;;;;;2096336;28;20303;-65
2023/04/12 22:35:08;;;;;;;28.00;12.80;;;;;;;;;;2097903;28;20259;-64
2023/04/12 22:36:12;;;;;;;28.33;12.73;;;;;;;;;;2097503;28;20278;-65
2023/04/12 22:37:17;;;;;;;38.13;14.90;;;;;;;;;;2097399;28;20748;-64